Meteo Giornale » Osservazioni meteo Russia » Jakutsk
ore: 16:00 - Osservazioni Meteo Jakutsk
Lat. 62° 1' N Lon. 129° 43' E Alt. 103 metri s.l.m.
22 °C
Caligine
Temp. 24 Ore
5 °C
22 °C
Nord
3.6 Km/h
Dew point 12 °C
Umidità 53 %
Visibilità 5 Km
Il sole sorge alle ore 05:07
Il sole tramonta alle ore 19:35
| Data e Ora | Cielo e Fenomeni | T °C | DP °C | Um. % | Pres. hPa | Vis. km | Vento km/h | |
|---|---|---|---|---|---|---|---|---|
| Oggi h: 16:00 | Caligine | 22 | 12 | 53 | 1019 | 5 | N 3.6 | |
| Oggi h: 15:30 | Caligine | 22 | 12 | 53 | 1019 | 5 | N 3.6 | |
| Oggi h: 15:00 | Caligine | 22 | 12 | 53 | 1019 | 5 | N 7.2 | |
| Oggi h: 14:30 | Caligine | 22 | 12 | 53 | 1019 | 5 | N 7.2 | |
| Oggi h: 14:00 | Caligine | 21 | 12 | 56 | 1020 | 3 | N 7.2 | |
| Oggi h: 13:30 | Caligine | 20 | 12 | 59 | 1020 | 3 | N 7.2 | |
| Oggi h: 13:00 | Caligine | 20 | 13 | 64 | 1020 | 3 | N 3.6 | |
| Oggi h: 12:30 | Caligine | 19 | 12 | 63 | 1020 | 3 | N 3.6 | |
| Oggi h: 12:00 | Caligine | 18 | 11 | 63 | 1020 | 2 | N 3.6 | |
| Oggi h: 11:30 | Caligine | 18 | 11 | 63 | 1021 | 2 | N 3.6 | |
| Oggi h: 11:00 | Caligine | 16 | 11 | 72 | 1021 | 2 | N 3.6 | |
| Oggi h: 10:30 | Caligine | 15 | 11 | 76 | 1021 | 2 | N 3.6 | |
| Oggi h: 10:00 | Foschia | 12 | 11 | 93 | 1021 | 2 | N 0 | |
| Oggi h: 09:30 | Nebbia | 10 | 10 | 100 | 1021 | 0.9 | N 0 | |
| Oggi h: 09:00 | Nebbia | 9 | 9 | 100 | 1021 | 0.3 | N 3.6 | |
| Oggi h: 08:30 | Nebbia | 8 | 8 | 100 | 1021 | 0.15 | N 0 | |
| Oggi h: 08:00 | Nebbia | 7 | 7 | 100 | 1021 | 0.1 | N 3.6 | |
| Oggi h: 07:30 | Nebbia | 6 | 6 | 100 | 1021 | 0.05 | N 3.6 | |
| Oggi h: 07:00 | Nebbia | 6 | 6 | 100 | 1021 | 0.05 | N 3.6 | |
| Oggi h: 06:30 | Nebbia | 5 | 5 | 100 | 1021 | 0.05 | N 3.6 | |
| Oggi h: 06:00 | Nebbia | 5 | 5 | 100 | 1020 | 0.05 | N 3.6 | |
| Oggi h: 05:30 | Nebbia | 5 | 5 | 100 | 1020 | 0.05 | N 3.6 | |
| Oggi h: 05:00 | Nebbia | 5 | 5 | 100 | 1020 | 0.1 | N 3.6 | |
| Oggi h: 04:30 | Nebbia | 5 | 5 | 100 | 1020 | 0.1 | N 3.6 | |
| Oggi h: 04:00 | Nebbia | 5 | 5 | 100 | 1020 | 0.8 | N 7.2 | |
| Oggi h: 03:30 | Foschia | 5 | 4 | 93 | 1020 | 1 | N 7.2 | |
| Oggi h: 03:00 | Foschia | 6 | 5 | 93 | 1020 | 2 | N 3.6 | |
| Oggi h: 02:30 | Foschia | 6 | 5 | 93 | 1020 | 2 | N 7.2 | |
| Oggi h: 02:00 | Foschia | 6 | 6 | 100 | 1020 | 2 | N 7.2 | |
| Oggi h: 01:30 | Foschia | 7 | 6 | 93 | 1019 | 1 | N 3.6 | |
| Oggi h: 01:00 | Foschia | 7 | 7 | 100 | 1019 | 2 | N 7.2 | |
| Oggi h: 00:30 | Foschia | 8 | 7 | 93 | 1019 | 2 | N 7.2 | |
| Oggi h: 00:00 | Foschia | 8 | 7 | 93 | 1019 | 2 | N 7.2 | |
| Ieri h: 23:30 | Foschia | 8 | 8 | 100 | 1019 | 2 | N 7.2 | |
| Ieri h: 23:00 | Foschia | 9 | 8 | 93 | 1019 | 2 | N 3.6 | |
| Ieri h: 22:30 | Foschia | 9 | 8 | 93 | 1019 | 2 | N 3.6 | |
| Ieri h: 22:00 | Foschia | 10 | 9 | 93 | 1019 | 1 | N 7.2 | |
| Ieri h: 21:30 | Foschia | 10 | 10 | 100 | 1019 | 2 | N 7.2 | |
| Ieri h: 21:00 | Nebbia | 11 | 11 | 100 | 1019 | 0.6 | N 3.6 | |
| Ieri h: 20:30 | Nebbia | 11 | 10 | 93 | 1019 | 0.75 | N 0 | |
| Ieri h: 20:00 | Foschia | 12 | 12 | 100 | 1019 | 1 | N 0 | |
| Ieri h: 19:30 | Caligine | 13 | 12 | 93 | 1019 | 1 | N 0 | |
| Ieri h: 19:00 | Caligine | 16 | 13 | 82 | 1019 | 2 | N 3.6 | |
| Ieri h: 18:30 | Caligine | 17 | 13 | 77 | 1018 | 2 | N 3.6 | |
| Ieri h: 18:00 | Caligine | 18 | 14 | 77 | 1018 | 2 | N 3.6 | |
| Ieri h: 17:30 | Caligine | 19 | 13 | 68 | 1018 | 2 | N 3.6 | |
| Ieri h: 17:00 | Caligine | 20 | 13 | 64 | 1018 | 2 | N 3.6 | |



